createdAt,value
2018-09-20T00:02:25.672Z,51.30
2018-09-20T00:04:53.723Z,51.20
2018-09-20T00:07:21.787Z,51.20
2018-09-20T00:09:49.859Z,51.20
2018-09-20T00:12:17.927Z,51.20
2018-09-20T00:14:45.987Z,51.00
2018-09-20T00:17:14.054Z,51.00
2018-09-20T00:19:42.126Z,51.00
2018-09-20T00:22:10.187Z,51.00
2018-09-20T00:24:38.251Z,51.00
2018-09-20T00:27:06.306Z,51.00
2018-09-20T00:29:34.383Z,51.20
2018-09-20T00:32:02.866Z,51.30
2018-09-20T00:34:30.914Z,51.30
2018-09-20T00:36:58.986Z,51.20
2018-09-20T00:39:27.035Z,51.30
2018-09-20T00:41:55.367Z,51.30
2018-09-20T00:44:23.419Z,51.30
2018-09-20T00:46:51.480Z,51.20
2018-09-20T00:49:19.547Z,51.00
2018-09-20T00:51:47.606Z,51.00
2018-09-20T00:54:15.654Z,51.10
2018-09-20T00:56:43.734Z,51.10
2018-09-20T00:59:11.790Z,51.00
2018-09-20T01:01:39.845Z,51.00
2018-09-20T01:04:07.906Z,51.10
2018-09-20T01:06:36.070Z,51.20
2018-09-20T01:09:06.271Z,51.30
2018-09-20T01:11:34.325Z,51.20
2018-09-20T01:14:02.407Z,51.20
2018-09-20T01:16:30.501Z,51.20
2018-09-20T01:18:58.767Z,51.20
2018-09-20T01:21:26.823Z,51.20
2018-09-20T01:23:54.891Z,51.00
2018-09-20T01:26:22.951Z,51.00
2018-09-20T01:28:51.018Z,51.00
2018-09-20T01:31:19.363Z,51.00
2018-09-20T01:33:47.555Z,51.00
2018-09-20T01:36:15.650Z,51.00
2018-09-20T01:38:44.159Z,51.10
2018-09-20T01:41:12.217Z,51.10
2018-09-20T01:43:40.290Z,51.10
2018-09-20T01:46:08.354Z,51.10
2018-09-20T01:48:36.751Z,51.10
2018-09-20T01:51:04.823Z,51.00
2018-09-20T01:53:32.891Z,51.00
2018-09-20T01:56:00.955Z,51.00
2018-09-20T01:58:29.023Z,50.90
2018-09-20T02:00:57.091Z,50.90
2018-09-20T02:03:25.154Z,50.90
2018-09-20T02:05:53.206Z,51.00
2018-09-20T02:08:21.270Z,51.00
2018-09-20T02:10:49.322Z,51.00
2018-09-20T02:13:17.390Z,51.00
2018-09-20T02:15:45.447Z,51.10
2018-09-20T02:18:13.514Z,51.00
2018-09-20T02:20:41.587Z,51.00
2018-09-20T02:23:09.655Z,51.00
2018-09-20T02:25:37.794Z,50.90
2018-09-20T02:28:05.859Z,50.90
2018-09-20T02:30:33.919Z,51.10
2018-09-20T02:33:02.559Z,50.90
2018-09-20T02:35:30.623Z,50.80
2018-09-20T02:37:58.721Z,51.00
2018-09-20T02:40:26.781Z,51.00
2018-09-20T02:42:54.851Z,51.00
2018-09-20T02:45:22.912Z,51.00
2018-09-20T02:47:51.095Z,51.00
2018-09-20T02:50:19.166Z,51.10
2018-09-20T02:52:47.519Z,51.10
2018-09-20T02:55:15.591Z,51.00
2018-09-20T02:57:43.651Z,51.00
2018-09-20T03:00:11.714Z,51.00
2018-09-20T03:02:39.762Z,51.00
2018-09-20T03:05:07.831Z,51.00
2018-09-20T03:07:35.898Z,51.00
2018-09-20T03:10:04.279Z,51.10
2018-09-20T03:12:32.347Z,51.00
2018-09-20T03:15:00.415Z,51.10
2018-09-20T03:17:28.478Z,51.00
2018-09-20T03:19:56.597Z,51.10
2018-09-20T03:22:24.654Z,51.10
2018-09-20T03:24:53.233Z,51.00
2018-09-20T03:27:21.291Z,51.00
2018-09-20T03:29:49.362Z,51.20
2018-09-20T03:32:18.084Z,51.20
2018-09-20T03:34:47.703Z,51.20
2018-09-20T03:37:15.788Z,51.00
2018-09-20T03:39:44.157Z,51.00
2018-09-20T03:42:12.214Z,51.00
2018-09-20T03:44:40.278Z,51.00
2018-09-20T03:47:08.371Z,50.90
2018-09-20T03:49:36.462Z,51.00
2018-09-20T03:52:04.707Z,51.00
2018-09-20T03:54:32.806Z,51.10
2018-09-20T03:57:00.868Z,51.00
2018-09-20T03:59:28.943Z,51.20
2018-09-20T04:01:57.330Z,51.20
2018-09-20T04:04:25.414Z,51.20
2018-09-20T04:06:53.487Z,51.10
2018-09-20T04:09:21.563Z,51.00
2018-09-20T04:11:49.754Z,51.00
2018-09-20T04:14:17.843Z,52.30
2018-09-20T04:16:45.928Z,51.90
2018-09-20T04:19:14.293Z,51.40
2018-09-20T04:21:42.621Z,51.20
2018-09-20T04:24:11.198Z,51.10
2018-09-20T04:26:39.383Z,51.50
2018-09-20T04:29:07.475Z,51.80
2018-09-20T04:31:35.661Z,51.80
2018-09-20T04:34:09.330Z,51.20
2018-09-20T04:36:38.368Z,51.20
2018-09-20T04:39:08.347Z,51.30
2018-09-20T04:41:36.408Z,51.10
2018-09-20T04:44:04.462Z,51.00
2018-09-20T04:46:32.531Z,50.90
2018-09-20T04:49:00.938Z,50.80
2018-09-20T04:51:29.004Z,50.60
2018-09-20T04:53:58.319Z,50.90
2018-09-20T04:56:27.565Z,50.60
2018-09-20T04:58:55.644Z,51.30
2018-09-20T05:01:23.910Z,50.70
2018-09-20T05:03:51.991Z,50.60
2018-09-20T05:06:20.095Z,51.00
2018-09-20T05:08:48.150Z,50.40
2018-09-20T05:11:17.017Z,50.50
2018-09-20T05:13:45.372Z,50.60
2018-09-20T05:16:13.587Z,50.50
2018-09-20T05:18:42.387Z,50.50
2018-09-20T05:21:10.473Z,50.40
2018-09-20T05:23:39.123Z,50.20
2018-09-20T05:26:07.210Z,50.20
2018-09-20T05:28:35.263Z,50.00
2018-09-20T05:31:03.350Z,50.10
2018-09-20T05:33:31.430Z,50.30
2018-09-20T05:35:59.842Z,50.50
2018-09-20T05:38:28.171Z,50.80
2018-09-20T05:40:56.239Z,50.70
2018-09-20T05:43:24.356Z,51.30
2018-09-20T05:45:52.414Z,51.30
2018-09-20T05:48:20.475Z,51.20
2018-09-20T05:50:48.603Z,51.30
2018-09-20T05:53:16.637Z,51.30
2018-09-20T05:55:44.903Z,51.40
2018-09-20T05:58:12.966Z,51.50
2018-09-20T06:00:41.113Z,51.60
2018-09-20T06:03:09.591Z,51.90
2018-09-20T06:05:37.727Z,52.10
2018-09-20T06:08:05.722Z,52.30
2018-09-20T06:10:33.779Z,52.30
2018-09-20T06:13:01.843Z,52.40
2018-09-20T06:15:29.913Z,52.30
2018-09-20T06:17:57.983Z,52.30
2018-09-20T06:20:26.042Z,52.30
2018-09-20T06:22:54.098Z,52.30
2018-09-20T06:25:22.342Z,52.60
2018-09-20T06:27:50.411Z,52.30
2018-09-20T06:30:18.468Z,52.30
2018-09-20T06:32:46.558Z,52.30
2018-09-20T06:35:14.622Z,52.30
2018-09-20T06:37:42.722Z,52.40
2018-09-20T06:40:10.774Z,52.40
2018-09-20T06:42:38.843Z,52.40
2018-09-20T06:45:07.001Z,52.40
2018-09-20T06:47:35.079Z,52.40
2018-09-20T06:50:03.302Z,52.50
2018-09-20T06:52:31.565Z,52.40
2018-09-20T06:54:59.708Z,52.40
2018-09-20T06:57:32.090Z,52.30
2018-09-20T07:00:00.210Z,52.30
2018-09-20T07:02:28.270Z,52.30
2018-09-20T07:04:56.335Z,52.30
2018-09-20T07:07:24.435Z,52.30
2018-09-20T07:09:52.497Z,52.30
2018-09-20T07:12:20.678Z,52.30
2018-09-20T07:14:49.030Z,52.30
2018-09-20T07:17:17.140Z,52.40
2018-09-20T07:19:45.191Z,52.50
2018-09-20T07:22:13.258Z,52.40
2018-09-20T07:24:41.316Z,52.50
2018-09-20T07:27:09.606Z,52.40
2018-09-20T07:29:37.658Z,52.40
2018-09-20T07:32:05.775Z,52.30
2018-09-20T07:34:33.843Z,52.30
2018-09-20T07:37:01.911Z,52.30
2018-09-20T07:39:29.983Z,52.30
2018-09-20T07:41:58.052Z,52.20
2018-09-20T07:44:26.118Z,52.20
2018-09-20T07:46:54.205Z,52.30
2018-09-20T07:49:22.287Z,52.30
2018-09-20T07:51:50.374Z,52.40
2018-09-20T07:54:18.693Z,52.40
2018-09-20T07:56:46.788Z,52.10
2018-09-20T07:59:14.826Z,52.50
2018-09-20T08:01:43.424Z,52.40
2018-09-20T08:04:11.428Z,52.40
2018-09-20T08:06:39.499Z,52.30
2018-09-20T08:09:09.506Z,52.30
2018-09-20T08:11:37.729Z,52.30
2018-09-20T08:14:06.104Z,52.30
2018-09-20T08:16:34.182Z,52.20
2018-09-20T08:19:02.270Z,52.20
2018-09-20T08:21:30.399Z,52.30
2018-09-20T08:23:58.431Z,52.30
2018-09-20T08:26:26.486Z,52.30
2018-09-20T08:28:54.556Z,52.40
2018-09-20T08:31:22.631Z,52.40
2018-09-20T08:33:50.703Z,52.40
2018-09-20T08:36:18.766Z,52.40
2018-09-20T08:38:46.854Z,52.30
2018-09-20T08:41:14.914Z,52.30
2018-09-20T08:43:43.232Z,52.30
2018-09-20T08:46:11.319Z,52.20
2018-09-20T08:48:39.412Z,52.30
2018-09-20T08:51:07.545Z,52.20
2018-09-20T08:53:35.588Z,52.20
2018-09-20T08:56:03.931Z,52.30
2018-09-20T08:58:32.789Z,52.10
2018-09-20T09:01:02.467Z,52.10
2018-09-20T09:03:30.773Z,52.20
2018-09-20T09:05:58.830Z,52.20
2018-09-20T09:08:26.943Z,52.30
2018-09-20T09:10:55.011Z,52.30
2018-09-20T09:13:23.074Z,52.20
2018-09-20T09:15:51.134Z,52.30
2018-09-20T09:18:19.459Z,52.10
2018-09-20T09:20:47.519Z,52.00
2018-09-20T09:23:15.585Z,52.10
2018-09-20T09:25:43.651Z,52.10
2018-09-20T09:28:11.763Z,52.00
2018-09-20T09:30:39.839Z,52.00
2018-09-20T09:33:07.915Z,52.10
2018-09-20T09:36:09.909Z,52.10
2018-09-20T09:38:38.043Z,52.10
2018-09-20T09:41:06.132Z,52.10
2018-09-20T09:43:34.234Z,52.20
2018-09-20T09:46:02.528Z,52.20
2018-09-20T09:48:30.660Z,52.10
2018-09-20T09:50:58.769Z,52.20
2018-09-20T09:53:26.859Z,52.20
2018-09-20T09:55:55.026Z,52.10
2018-09-20T09:58:23.143Z,52.10
2018-09-20T10:00:51.250Z,52.00
2018-09-20T10:03:19.391Z,52.00
2018-09-20T10:05:47.475Z,52.00
2018-09-20T10:08:15.686Z,52.00
2018-09-20T10:10:43.804Z,52.10
2018-09-20T10:13:11.984Z,52.00
2018-09-20T10:15:41.994Z,52.00
2018-09-20T10:18:10.168Z,52.10
2018-09-20T10:20:38.487Z,52.00
2018-09-20T10:23:06.643Z,52.00
2018-09-20T10:25:34.791Z,52.00
2018-09-20T10:28:02.918Z,52.00
2018-09-20T10:30:31.007Z,52.00
2018-09-20T10:32:59.169Z,51.90
2018-09-20T10:35:27.348Z,51.80
2018-09-20T10:37:55.485Z,51.70
2018-09-20T10:40:23.630Z,51.70
2018-09-20T10:42:51.748Z,51.70
2018-09-20T10:45:19.874Z,51.60
2018-09-20T10:47:48.002Z,51.60
2018-09-20T10:50:16.144Z,51.60
2018-09-20T10:52:44.287Z,51.60
2018-09-20T10:55:12.400Z,51.60
2018-09-20T10:57:40.534Z,51.60
2018-09-20T11:00:08.684Z,51.60
2018-09-20T11:02:36.791Z,51.60
2018-09-20T11:05:04.934Z,51.50
2018-09-20T11:07:33.192Z,51.60
2018-09-20T11:10:01.321Z,51.60
2018-09-20T11:15:02.934Z,51.70
2018-09-20T11:17:31.039Z,51.70
2018-09-20T11:20:00.132Z,51.70
2018-09-20T11:22:28.246Z,52.30
2018-09-20T11:24:56.351Z,51.80
2018-09-20T11:27:24.462Z,51.80
2018-09-20T11:29:54.006Z,52.40
2018-09-20T11:32:22.194Z,51.90
2018-09-20T11:34:50.703Z,51.90
2018-09-20T11:37:18.825Z,52.00
2018-09-20T11:39:46.954Z,52.00
2018-09-20T11:42:15.065Z,52.00
2018-09-20T11:44:43.175Z,52.10
2018-09-20T11:47:11.309Z,52.40
2018-09-20T11:49:39.422Z,51.40
2018-09-20T11:52:07.570Z,51.60
2018-09-20T11:54:35.664Z,52.50
2018-09-20T11:57:03.796Z,52.30
2018-09-20T11:59:31.887Z,52.40
2018-09-20T12:02:00.032Z,52.50
2018-09-20T12:04:28.101Z,52.40
2018-09-20T12:06:56.194Z,52.10
2018-09-20T12:09:24.276Z,52.00
2018-09-20T12:11:52.391Z,52.10
2018-09-20T12:14:20.549Z,52.20
2018-09-20T12:16:48.605Z,52.10
2018-09-20T12:19:16.699Z,52.00
2018-09-20T12:21:44.807Z,51.90
2018-09-20T12:24:13.200Z,52.00
2018-09-20T12:26:41.813Z,51.80
2018-09-20T12:29:09.934Z,52.00
2018-09-20T12:31:38.089Z,53.00
2018-09-20T12:34:06.311Z,52.70
2018-09-20T12:36:34.393Z,52.30
2018-09-20T12:39:02.527Z,52.50
2018-09-20T12:41:30.627Z,52.70
2018-09-20T12:43:58.738Z,52.80
2018-09-20T12:46:26.838Z,52.60
2018-09-20T12:48:55.038Z,52.80
2018-09-20T12:51:23.160Z,52.80
2018-09-20T12:53:51.262Z,52.70
2018-09-20T12:56:19.408Z,53.20
2018-09-20T12:58:49.364Z,51.90
2018-09-20T13:01:17.949Z,52.30
2018-09-20T13:03:46.027Z,51.80
2018-09-20T13:06:14.120Z,52.00
2018-09-20T13:08:42.212Z,53.10
2018-09-20T13:11:10.318Z,53.70
2018-09-20T13:13:38.628Z,53.60
2018-09-20T13:16:06.734Z,53.60
2018-09-20T13:18:34.834Z,54.70
2018-09-20T13:21:03.032Z,54.00
2018-09-20T13:23:31.396Z,55.20
2018-09-20T13:25:59.536Z,55.90
2018-09-20T13:28:28.784Z,55.00
2018-09-20T13:30:57.367Z,54.50
2018-09-20T13:33:25.643Z,55.00
2018-09-20T13:35:54.744Z,54.60
2018-09-20T13:38:22.872Z,55.00
2018-09-20T13:40:51.019Z,54.80
2018-09-20T13:43:19.261Z,54.90
2018-09-20T13:45:47.323Z,55.00
2018-09-20T13:48:15.672Z,54.90
2018-09-20T13:50:43.855Z,54.70
2018-09-20T13:53:12.008Z,54.10
2018-09-20T13:55:40.288Z,54.50
2018-09-20T13:58:08.380Z,54.10
2018-09-20T14:00:36.819Z,53.50
2018-09-20T14:03:05.199Z,53.40
2018-09-20T14:05:33.300Z,53.60
2018-09-20T14:08:01.443Z,53.50
2018-09-20T14:10:29.555Z,53.60
2018-09-20T14:12:57.683Z,53.60
2018-09-20T14:15:25.800Z,53.50
2018-09-20T14:17:53.915Z,54.00
2018-09-20T14:20:22.096Z,53.30
2018-09-20T14:22:50.423Z,53.80
2018-09-20T14:25:18.857Z,53.20
2018-09-20T14:27:46.960Z,53.20
2018-09-20T14:30:15.083Z,53.30
2018-09-20T14:32:43.302Z,53.20
2018-09-20T14:35:11.407Z,53.10
2018-09-20T14:37:39.482Z,53.00
2018-09-20T14:40:07.626Z,52.90
2018-09-20T14:42:35.699Z,52.90
2018-09-20T14:45:03.851Z,52.80
2018-09-20T14:47:31.945Z,52.90
2018-09-20T14:50:00.110Z,52.80
2018-09-20T14:52:28.243Z,52.70
2018-09-20T14:54:56.486Z,52.90
2018-09-20T14:57:24.615Z,53.10
2018-09-20T14:59:52.724Z,53.00
2018-09-20T15:02:20.963Z,52.70
2018-09-20T15:04:49.341Z,52.50
2018-09-20T15:07:17.447Z,52.60
2018-09-20T15:09:45.524Z,52.60
2018-09-20T15:12:13.604Z,52.70
2018-09-20T15:14:41.708Z,52.60
2018-09-20T15:17:09.815Z,52.70
2018-09-20T15:19:38.118Z,52.60
2018-09-20T15:22:06.627Z,52.50
2018-09-20T15:24:34.797Z,52.60
2018-09-20T15:27:02.839Z,52.60
2018-09-20T15:29:30.927Z,52.60
2018-09-20T15:31:59.068Z,52.60
2018-09-20T15:34:27.167Z,52.50
2018-09-20T15:36:55.309Z,52.50
2018-09-20T15:39:23.394Z,52.50
2018-09-20T15:41:51.716Z,52.60
2018-09-20T15:44:19.828Z,52.50
2018-09-20T15:46:47.934Z,52.50
2018-09-20T15:49:16.046Z,52.50
2018-09-20T15:51:44.234Z,52.50
2018-09-20T15:54:12.353Z,52.50
2018-09-20T15:56:40.501Z,52.50
2018-09-20T15:59:08.634Z,52.40
2018-09-20T16:01:36.743Z,52.90
2018-09-20T16:04:04.903Z,52.30
2018-09-20T16:06:33.039Z,52.40
2018-09-20T16:09:01.168Z,52.60
2018-09-20T16:11:29.252Z,52.60
2018-09-20T16:13:57.623Z,52.60
2018-09-20T16:16:25.752Z,52.50
2018-09-20T16:18:53.855Z,52.60
2018-09-20T16:21:21.979Z,53.20
2018-09-20T16:23:50.124Z,52.80
2018-09-20T16:26:18.264Z,52.10
2018-09-20T16:29:02.748Z,52.40
2018-09-20T16:31:53.768Z,52.60
2018-09-20T16:36:38.631Z,52.80
2018-09-20T16:39:13.978Z,53.30
2018-09-20T16:41:44.148Z,53.50
2018-09-20T16:44:12.263Z,53.50
2018-09-20T16:46:40.398Z,53.50
2018-09-20T16:49:08.501Z,53.10
2018-09-20T16:51:36.583Z,53.20
2018-09-20T16:54:04.711Z,53.20
2018-09-20T16:56:32.814Z,53.20
2018-09-20T16:59:01.032Z,53.30
2018-09-20T17:01:29.139Z,53.30
2018-09-20T17:03:57.256Z,53.10
2018-09-20T17:06:25.379Z,53.20
2018-09-20T17:08:53.544Z,52.90
2018-09-20T17:11:21.675Z,52.80
2018-09-20T17:13:49.816Z,52.70
2018-09-20T17:16:18.028Z,52.50
2018-09-20T17:18:47.099Z,52.40
2018-09-20T17:21:15.305Z,52.20
2018-09-20T17:23:43.428Z,52.40
2018-09-20T17:26:11.787Z,52.00
2018-09-20T17:28:39.880Z,51.90
2018-09-20T17:31:08.035Z,51.80
2018-09-20T17:33:36.143Z,51.70
2018-09-20T17:36:04.243Z,51.80
2018-09-20T17:38:33.246Z,51.60
2018-09-20T17:45:58.691Z,51.70
2018-09-20T17:48:26.810Z,51.60
2018-09-20T17:50:55.339Z,51.80
2018-09-20T17:53:24.159Z,51.80
2018-09-20T17:55:52.962Z,51.90
2018-09-20T17:58:21.692Z,51.90
2018-09-20T18:00:51.820Z,51.90
2018-09-20T18:03:19.936Z,51.90
2018-09-20T18:05:48.093Z,51.90
2018-09-20T18:08:16.200Z,51.90
2018-09-20T18:10:44.308Z,52.00
2018-09-20T18:13:12.424Z,52.10
2018-09-20T18:15:40.551Z,52.10
2018-09-20T18:18:08.835Z,52.30
2018-09-20T18:20:36.811Z,53.10
2018-09-20T18:23:04.920Z,52.40
2018-09-20T18:25:33.015Z,52.40
2018-09-20T18:28:01.143Z,52.40
2018-09-20T18:30:29.568Z,52.60
2018-09-20T18:32:57.885Z,52.70
2018-09-20T18:35:26.003Z,52.70
2018-09-20T18:37:54.343Z,52.80
2018-09-20T18:40:22.540Z,52.90
2018-09-20T18:42:50.587Z,52.80
2018-09-20T18:45:18.679Z,52.90
2018-09-20T18:47:46.826Z,52.90
2018-09-20T18:50:14.924Z,52.90
2018-09-20T18:52:43.072Z,52.90
2018-09-20T18:55:11.177Z,52.80
2018-09-20T18:57:39.294Z,52.80
2018-09-20T19:00:07.523Z,52.80
2018-09-20T19:02:35.708Z,52.90
2018-09-20T19:05:03.831Z,52.80
2018-09-20T19:07:32.002Z,52.90
2018-09-20T19:10:00.103Z,53.00
2018-09-20T19:12:28.235Z,53.10
2018-09-20T19:14:56.352Z,53.00
2018-09-20T19:17:24.636Z,53.00
2018-09-20T19:19:52.802Z,53.00
2018-09-20T19:22:20.919Z,53.00
2018-09-20T19:24:49.067Z,53.00
2018-09-20T19:27:17.198Z,53.10
2018-09-20T19:29:45.293Z,53.00
2018-09-20T19:32:13.460Z,53.10
2018-09-20T19:34:41.636Z,53.40
2018-09-20T19:37:09.769Z,53.40
2018-09-20T19:39:37.873Z,53.40
2018-09-20T19:42:06.204Z,53.40
2018-09-20T19:44:34.291Z,53.40
2018-09-20T19:47:02.399Z,53.50
2018-09-20T19:49:30.519Z,53.50
2018-09-20T19:51:58.751Z,53.50
2018-09-20T19:54:26.888Z,53.60
2018-09-20T19:56:54.988Z,53.60
2018-09-20T19:59:23.063Z,53.60
2018-09-20T20:01:51.180Z,53.60
2018-09-20T20:04:19.283Z,53.60
2018-09-20T20:06:47.471Z,53.80
2018-09-20T20:09:15.596Z,53.60
2018-09-20T20:11:43.809Z,53.60
2018-09-20T20:14:11.946Z,53.80
2018-09-20T20:16:40.444Z,53.80
2018-09-20T20:19:09.028Z,53.80
2018-09-20T20:21:37.383Z,53.80
2018-09-20T20:24:05.507Z,54.00
2018-09-20T20:26:33.603Z,53.90
2018-09-20T20:29:01.775Z,54.00
2018-09-20T20:31:29.927Z,54.00
2018-09-20T20:33:58.044Z,54.00
2018-09-20T20:36:26.610Z,54.10
2018-09-20T20:38:54.947Z,54.00
2018-09-20T20:41:23.098Z,54.00
2018-09-20T20:43:51.182Z,54.10
2018-09-20T20:46:19.268Z,54.10
2018-09-20T20:48:47.543Z,54.00
2018-09-20T20:51:17.050Z,54.20
2018-09-20T20:53:45.191Z,54.10
2018-09-20T20:56:13.487Z,54.00
2018-09-20T20:58:43.293Z,54.10
2018-09-20T21:01:17.368Z,54.20
2018-09-20T21:03:47.456Z,54.20
2018-09-20T21:06:17.972Z,54.20
2018-09-20T21:08:47.160Z,54.30
2018-09-20T21:11:15.639Z,54.20
2018-09-20T21:13:43.815Z,54.10
2018-09-20T21:16:13.292Z,54.10
2018-09-20T21:18:41.651Z,54.20
2018-09-20T21:21:09.886Z,54.20
2018-09-20T21:23:38.316Z,54.10
2018-09-20T21:26:06.808Z,54.80
2018-09-20T21:28:38.836Z,54.20
2018-09-20T21:31:08.159Z,54.30
2018-09-20T21:33:37.603Z,54.20
2018-09-20T21:36:05.766Z,54.10
2018-09-20T21:38:33.911Z,54.10
2018-09-20T21:41:02.420Z,54.40
2018-09-20T21:43:31.471Z,54.40
2018-09-20T21:46:00.431Z,54.40
2018-09-20T21:48:28.692Z,54.10
2018-09-20T21:50:58.809Z,54.00
2018-09-20T21:53:27.191Z,54.00
2018-09-20T21:55:55.535Z,54.00
2018-09-20T21:58:23.651Z,54.00
2018-09-20T22:00:56.404Z,54.20
2018-09-20T22:03:24.641Z,54.40
2018-09-20T22:05:53.251Z,54.40
2018-09-20T22:08:21.358Z,54.50
2018-09-20T22:10:49.753Z,54.40
2018-09-20T22:13:18.375Z,54.40
2018-09-20T22:15:47.304Z,54.50
2018-09-20T22:18:15.836Z,54.50
2018-09-20T22:20:44.228Z,54.20
2018-09-20T22:23:12.402Z,54.00
2018-09-20T22:25:40.522Z,53.90
2018-09-20T22:28:09.031Z,53.90
2018-09-20T22:30:37.121Z,53.90
2018-09-20T22:33:05.213Z,54.00
2018-09-20T22:35:35.279Z,54.10
2018-09-20T22:38:08.714Z,54.10
2018-09-20T22:40:42.385Z,54.10
2018-09-20T22:43:16.568Z,54.20
2018-09-20T22:46:03.329Z,54.20
2018-09-20T22:48:35.186Z,54.20
2018-09-20T22:51:03.288Z,54.20
2018-09-20T22:53:31.398Z,54.20
2018-09-20T22:55:59.652Z,53.70
2018-09-20T22:58:28.382Z,53.60
2018-09-20T23:00:56.499Z,53.70
2018-09-20T23:03:24.610Z,53.70
2018-09-20T23:05:52.727Z,53.70
2018-09-20T23:08:21.223Z,53.70
2018-09-20T23:10:49.443Z,53.80
2018-09-20T23:13:17.675Z,54.60
2018-09-20T23:15:46.075Z,54.10
2018-09-20T23:18:14.177Z,54.10
2018-09-20T23:20:42.303Z,54.10
2018-09-20T23:23:12.451Z,54.10
2018-09-20T23:25:40.574Z,54.10
2018-09-20T23:28:08.768Z,54.10
2018-09-20T23:30:36.911Z,53.80
2018-09-20T23:33:10.440Z,53.70
2018-09-20T23:35:39.995Z,53.80
2018-09-20T23:38:08.079Z,53.80
2018-09-20T23:40:36.193Z,53.80
2018-09-20T23:43:04.459Z,53.70
2018-09-20T23:45:32.643Z,53.80
2018-09-20T23:48:00.779Z,53.80
2018-09-20T23:50:28.877Z,53.80
2018-09-20T23:52:56.999Z,53.80
2018-09-20T23:55:25.228Z,54.50
2018-09-20T23:57:54.100Z,53.90
